createdAt,value
2017-08-31T00:01:20.280Z,67.76
2017-08-31T00:03:50.096Z,67.54
2017-08-31T00:06:19.433Z,68.54
2017-08-31T00:08:49.018Z,69.19
2017-08-31T00:11:19.108Z,68.98
2017-08-31T00:16:18.352Z,68.32
2017-08-31T00:18:48.277Z,67.96
2017-08-31T00:21:17.933Z,68.13
2017-08-31T00:23:47.277Z,68.60
2017-08-31T00:26:17.304Z,68.37
2017-08-31T00:28:46.857Z,68.77
2017-08-31T00:31:16.215Z,68.48
2017-08-31T00:33:45.540Z,68.74
2017-08-31T00:36:14.860Z,68.65
2017-08-31T00:38:44.292Z,68.83
2017-08-31T00:41:14.195Z,68.77
2017-08-31T00:43:44.021Z,68.39
2017-08-31T00:46:13.685Z,68.92
2017-08-31T00:48:43.183Z,70.34
2017-08-31T00:51:12.624Z,70.22
2017-08-31T00:53:42.496Z,71.01
2017-08-31T00:56:13.528Z,69.58
2017-08-31T00:58:44.483Z,71.25
2017-08-31T01:01:16.787Z,70.21
2017-08-31T01:03:47.476Z,70.16
2017-08-31T01:06:18.424Z,70.69
2017-08-31T01:08:47.784Z,70.99
2017-08-31T01:11:17.209Z,70.60
2017-08-31T01:13:46.551Z,70.68
2017-08-31T01:16:15.978Z,71.89
2017-08-31T01:18:45.763Z,70.99
2017-08-31T01:21:16.507Z,71.40
2017-08-31T01:23:46.130Z,71.19
2017-08-31T01:26:15.752Z,70.95
2017-08-31T01:28:45.105Z,70.97
2017-08-31T01:31:14.778Z,69.74
2017-08-31T01:33:44.653Z,70.17
2017-08-31T01:36:14.123Z,67.81
2017-08-31T01:38:43.804Z,66.97
2017-08-31T01:41:16.247Z,66.26
2017-08-31T01:43:45.586Z,65.88
2017-08-31T01:46:14.984Z,65.76
2017-08-31T01:48:44.301Z,65.18
2017-08-31T01:51:13.804Z,65.11
2017-08-31T01:53:44.133Z,64.80
2017-08-31T01:56:13.593Z,64.90
2017-08-31T01:58:42.878Z,65.29
2017-08-31T02:01:12.688Z,65.09
2017-08-31T02:03:42.172Z,65.74
2017-08-31T02:06:11.625Z,65.43
2017-08-31T02:08:47.713Z,65.71
2017-08-31T02:11:17.081Z,66.02
2017-08-31T02:13:46.535Z,65.91
2017-08-31T02:16:16.222Z,66.10
2017-08-31T02:18:45.556Z,66.18
2017-08-31T02:21:14.951Z,66.14
2017-08-31T02:23:44.625Z,66.04
2017-08-31T02:26:14.022Z,66.14
2017-08-31T02:28:43.431Z,66.02
2017-08-31T02:31:12.956Z,66.06
2017-08-31T02:33:42.318Z,65.60
2017-08-31T02:36:11.737Z,65.85
2017-08-31T02:38:41.049Z,65.92
2017-08-31T02:41:10.561Z,65.87
2017-08-31T02:43:40.007Z,65.49
2017-08-31T02:46:09.360Z,65.04
2017-08-31T02:48:38.673Z,65.27
2017-08-31T02:51:08.180Z,65.63
2017-08-31T02:53:37.486Z,65.51
2017-08-31T02:56:06.934Z,65.41
2017-08-31T02:58:36.275Z,65.55
2017-08-31T03:01:05.897Z,65.99
2017-08-31T03:03:35.243Z,65.46
2017-08-31T03:06:04.791Z,65.85
2017-08-31T03:08:34.118Z,65.79
2017-08-31T03:11:10.469Z,66.17
2017-08-31T03:13:39.767Z,66.42
2017-08-31T03:16:09.213Z,66.59
2017-08-31T03:18:38.850Z,66.46
2017-08-31T03:21:08.227Z,66.77
2017-08-31T03:23:37.605Z,66.54
2017-08-31T03:26:06.916Z,66.74
2017-08-31T03:28:36.546Z,67.07
2017-08-31T03:31:06.104Z,67.02
2017-08-31T03:33:35.475Z,67.41
2017-08-31T03:36:04.951Z,67.58
2017-08-31T03:38:34.324Z,67.27
2017-08-31T03:41:03.636Z,67.81
2017-08-31T03:43:32.958Z,68.20
2017-08-31T03:46:02.321Z,67.70
2017-08-31T03:48:31.692Z,68.10
2017-08-31T03:51:01.027Z,68.26
2017-08-31T03:53:30.352Z,68.89
2017-08-31T03:55:59.678Z,68.63
2017-08-31T03:58:29.228Z,69.17
2017-08-31T04:00:58.676Z,69.07
2017-08-31T04:03:28.201Z,69.14
2017-08-31T04:05:57.538Z,68.91
2017-08-31T04:08:26.955Z,69.15
2017-08-31T04:10:59.280Z,69.61
2017-08-31T04:13:28.626Z,70.14
2017-08-31T04:15:58.286Z,70.59
2017-08-31T04:18:27.571Z,69.94
2017-08-31T04:20:57.256Z,71.19
2017-08-31T04:23:26.565Z,71.32
2017-08-31T04:25:55.872Z,71.43
2017-08-31T04:28:25.201Z,71.56
2017-08-31T04:30:54.921Z,71.88
2017-08-31T04:33:24.227Z,71.45
2017-08-31T04:35:53.618Z,72.11
2017-08-31T04:38:22.913Z,72.11
2017-08-31T04:40:52.239Z,72.17
2017-08-31T04:43:21.528Z,72.57
2017-08-31T04:45:50.879Z,72.22
2017-08-31T04:48:20.379Z,72.47
2017-08-31T04:50:49.742Z,73.53
2017-08-31T04:53:19.172Z,72.98
2017-08-31T04:55:48.836Z,72.82
2017-08-31T04:58:18.828Z,73.66
2017-08-31T05:00:48.194Z,73.33
2017-08-31T05:03:17.531Z,74.41
2017-08-31T05:05:47.336Z,73.94
2017-08-31T05:08:16.797Z,74.29
2017-08-31T05:10:46.190Z,74.42
2017-08-31T05:13:15.525Z,74.89
2017-08-31T05:15:44.916Z,74.79
2017-08-31T05:18:14.253Z,74.43
2017-08-31T05:20:43.621Z,75.53
2017-08-31T05:23:13.024Z,75.21
2017-08-31T05:25:42.609Z,76.29
2017-08-31T05:28:11.968Z,75.89
2017-08-31T05:30:41.608Z,76.12
2017-08-31T05:33:12.348Z,76.74
2017-08-31T05:35:47.029Z,75.90
2017-08-31T05:38:16.937Z,76.99
2017-08-31T05:40:46.349Z,76.35
2017-08-31T05:43:15.754Z,76.99
2017-08-31T05:45:46.124Z,77.76
2017-08-31T05:48:15.844Z,78.10
2017-08-31T05:50:45.166Z,77.34
2017-08-31T05:53:14.772Z,77.40
2017-08-31T05:55:44.607Z,77.00
2017-08-31T05:58:14.118Z,77.79
2017-08-31T06:00:43.470Z,77.05
2017-08-31T06:03:13.016Z,76.64
2017-08-31T06:05:42.414Z,76.32
2017-08-31T06:08:13.057Z,76.30
2017-08-31T06:10:44.233Z,74.36
2017-08-31T06:13:13.977Z,73.30
2017-08-31T06:15:43.524Z,71.30
2017-08-31T06:18:12.825Z,69.99
2017-08-31T06:20:42.311Z,68.95
2017-08-31T06:23:11.892Z,68.26
2017-08-31T06:25:41.215Z,68.37
2017-08-31T06:28:11.064Z,67.37
2017-08-31T06:30:40.457Z,67.09
2017-08-31T06:33:09.861Z,68.23
2017-08-31T06:35:39.276Z,68.36
2017-08-31T06:38:08.639Z,69.16
2017-08-31T06:40:38.269Z,70.13
2017-08-31T06:43:07.660Z,69.52
2017-08-31T06:45:37.161Z,70.15
2017-08-31T06:48:06.907Z,69.82
2017-08-31T06:50:36.345Z,69.69
2017-08-31T06:53:05.699Z,69.15
2017-08-31T06:55:35.057Z,68.50
2017-08-31T06:58:04.341Z,69.11
2017-08-31T07:00:33.873Z,68.78
2017-08-31T07:03:03.368Z,69.56
2017-08-31T07:05:32.739Z,70.68
2017-08-31T07:08:02.124Z,70.17
2017-08-31T07:10:31.718Z,71.72
2017-08-31T07:13:01.155Z,72.14
2017-08-31T07:15:30.562Z,71.41
2017-08-31T07:18:00.027Z,71.24
2017-08-31T07:20:29.452Z,71.78
2017-08-31T07:22:58.919Z,71.43
2017-08-31T07:25:28.288Z,72.18
2017-08-31T07:27:57.746Z,71.76
2017-08-31T07:30:27.384Z,70.92
2017-08-31T07:32:57.387Z,70.81
2017-08-31T07:35:27.260Z,70.75
2017-08-31T07:37:56.641Z,71.35
2017-08-31T07:40:25.956Z,70.89
2017-08-31T07:42:55.272Z,71.50
2017-08-31T07:45:24.664Z,72.21
2017-08-31T07:47:53.990Z,70.89
2017-08-31T07:50:23.343Z,70.92
2017-08-31T07:52:52.668Z,70.61
2017-08-31T07:55:22.091Z,70.22
2017-08-31T07:57:51.416Z,70.45
2017-08-31T08:00:20.765Z,69.94
2017-08-31T08:02:50.121Z,68.36
2017-08-31T08:05:19.818Z,68.66
2017-08-31T08:07:49.514Z,68.94
2017-08-31T08:10:18.929Z,68.38
2017-08-31T08:12:48.319Z,68.33
2017-08-31T08:15:17.664Z,69.45
2017-08-31T08:17:47.243Z,68.76
2017-08-31T08:20:16.676Z,67.28
2017-08-31T08:22:45.992Z,67.72
2017-08-31T08:25:15.357Z,67.73
2017-08-31T08:27:44.739Z,67.64
2017-08-31T08:30:14.192Z,67.18
2017-08-31T08:32:43.544Z,66.40
2017-08-31T08:35:12.984Z,67.22
2017-08-31T08:37:42.305Z,67.04
2017-08-31T08:40:11.762Z,67.33
2017-08-31T08:42:41.131Z,67.13
2017-08-31T08:45:10.665Z,66.84
2017-08-31T08:47:40.196Z,66.50
2017-08-31T08:50:10.301Z,65.46
2017-08-31T08:52:39.620Z,65.81
2017-08-31T08:55:09.324Z,64.47
2017-08-31T08:57:38.864Z,64.57
2017-08-31T09:00:08.270Z,65.64
2017-08-31T09:02:37.689Z,65.92
2017-08-31T09:05:09.365Z,64.55
2017-08-31T09:07:38.993Z,63.57
2017-08-31T09:10:10.317Z,63.48
2017-08-31T09:12:40.489Z,62.98
2017-08-31T09:15:10.708Z,61.97
2017-08-31T09:17:40.554Z,60.82
2017-08-31T09:20:11.170Z,61.68
2017-08-31T09:22:40.697Z,62.01
2017-08-31T09:25:11.916Z,61.68
2017-08-31T09:27:41.640Z,60.72
2017-08-31T09:30:11.960Z,61.54
2017-08-31T09:32:41.348Z,63.59
2017-08-31T09:35:10.689Z,63.97
2017-08-31T09:37:40.064Z,64.67
2017-08-31T09:40:09.420Z,63.98
2017-08-31T09:42:38.872Z,63.87
2017-08-31T09:45:08.521Z,63.13
2017-08-31T09:47:37.845Z,62.84
2017-08-31T09:50:07.219Z,61.90
2017-08-31T09:52:36.586Z,61.92
2017-08-31T09:55:06.045Z,61.82
2017-08-31T09:57:40.298Z,61.41
2017-08-31T10:00:11.873Z,60.27
2017-08-31T10:02:42.520Z,60.84
2017-08-31T10:05:12.068Z,62.10
2017-08-31T10:07:42.176Z,62.82
2017-08-31T10:10:12.102Z,63.17
2017-08-31T10:12:45.035Z,62.94
2017-08-31T10:15:15.671Z,63.03
2017-08-31T10:17:45.177Z,62.79
2017-08-31T10:20:14.616Z,62.32
2017-08-31T10:22:43.920Z,61.66
2017-08-31T10:25:13.381Z,61.53
2017-08-31T10:27:43.792Z,60.69
2017-08-31T10:30:13.613Z,61.01
2017-08-31T10:32:42.984Z,59.96
2017-08-31T10:35:12.419Z,54.47
2017-08-31T10:37:42.426Z,53.33
2017-08-31T10:40:11.948Z,54.68
2017-08-31T10:42:41.260Z,55.85
2017-08-31T10:45:10.650Z,56.54
2017-08-31T10:47:41.165Z,57.74
2017-08-31T10:50:10.701Z,57.95
2017-08-31T10:52:40.066Z,58.46
2017-08-31T10:55:09.680Z,59.13
2017-08-31T10:57:38.991Z,59.68
2017-08-31T11:00:09.346Z,60.35
2017-08-31T11:02:40.224Z,60.40
2017-08-31T11:05:11.352Z,60.07
2017-08-31T11:07:40.872Z,60.22
2017-08-31T11:10:12.112Z,59.74
2017-08-31T11:12:46.443Z,59.80
2017-08-31T11:15:17.369Z,59.07
2017-08-31T11:17:49.223Z,58.08
2017-08-31T11:20:20.356Z,59.38
2017-08-31T11:22:49.909Z,58.73
2017-08-31T11:25:19.540Z,58.76
2017-08-31T11:27:48.933Z,59.62
2017-08-31T11:30:18.402Z,58.68
2017-08-31T11:32:49.077Z,59.19
2017-08-31T11:35:18.831Z,58.89
2017-08-31T11:37:48.684Z,58.31
2017-08-31T11:40:18.198Z,60.14
2017-08-31T11:42:47.500Z,58.97
2017-08-31T11:45:18.321Z,59.07
2017-08-31T11:47:48.170Z,57.44
2017-08-31T11:50:17.518Z,57.90
2017-08-31T11:52:46.818Z,57.44
2017-08-31T11:55:16.360Z,58.49
2017-08-31T11:57:48.778Z,56.70
2017-08-31T12:00:18.973Z,57.15
2017-08-31T12:02:53.248Z,56.57
2017-08-31T12:05:22.722Z,56.72
2017-08-31T12:07:52.200Z,58.21
2017-08-31T12:10:22.026Z,56.11
2017-08-31T12:12:52.203Z,56.44
2017-08-31T12:15:21.830Z,55.80
2017-08-31T12:17:51.258Z,56.09
2017-08-31T12:20:20.749Z,56.50
2017-08-31T12:22:50.141Z,56.91
2017-08-31T12:25:19.731Z,57.38
2017-08-31T12:27:49.152Z,57.47
2017-08-31T12:30:18.586Z,55.48
2017-08-31T12:32:48.128Z,54.24
2017-08-31T12:35:17.495Z,53.65
2017-08-31T12:37:46.935Z,52.74
2017-08-31T12:40:16.279Z,52.36
2017-08-31T12:42:45.639Z,53.34
2017-08-31T12:45:15.226Z,55.57
2017-08-31T12:47:45.080Z,57.88
2017-08-31T12:50:15.365Z,61.18
2017-08-31T12:52:59.712Z,64.16
2017-08-31T12:55:29.177Z,65.34
2017-08-31T12:57:58.583Z,67.63
2017-08-31T13:00:28.257Z,68.26
2017-08-31T13:02:57.571Z,69.62
2017-08-31T13:05:27.524Z,70.99
2017-08-31T13:07:57.078Z,72.18
2017-08-31T13:10:26.530Z,73.06
2017-08-31T13:12:55.974Z,76.75
2017-08-31T13:15:25.395Z,78.85
2017-08-31T13:17:54.736Z,80.06
2017-08-31T13:20:24.182Z,80.74
2017-08-31T13:22:53.633Z,82.21
2017-08-31T13:25:23.181Z,81.30
2017-08-31T13:27:52.533Z,82.63
2017-08-31T13:30:21.986Z,83.51
2017-08-31T13:32:51.334Z,82.91
2017-08-31T13:35:20.741Z,83.70
2017-08-31T13:37:50.156Z,82.77
2017-08-31T13:40:19.893Z,83.64
2017-08-31T13:42:49.357Z,84.28
2017-08-31T13:45:18.773Z,84.18
2017-08-31T13:47:48.087Z,82.34
2017-08-31T13:50:17.755Z,85.11
2017-08-31T13:52:48.752Z,85.45
2017-08-31T13:55:18.493Z,85.14
2017-08-31T13:57:47.948Z,83.46
2017-08-31T14:00:17.336Z,85.47
2017-08-31T14:02:46.620Z,84.01
2017-08-31T14:05:15.976Z,84.54
2017-08-31T14:07:45.293Z,83.93
2017-08-31T14:10:14.921Z,84.54
2017-08-31T14:12:45.292Z,84.02
2017-08-31T14:15:14.892Z,83.44
2017-08-31T14:17:44.201Z,83.62
2017-08-31T14:20:14.121Z,82.89
2017-08-31T14:22:43.628Z,83.52
2017-08-31T14:25:12.995Z,82.30
2017-08-31T14:27:42.299Z,82.55
2017-08-31T14:30:11.680Z,82.76
2017-08-31T14:32:41.034Z,82.36
2017-08-31T14:35:10.556Z,82.21
2017-08-31T14:37:39.857Z,81.68
2017-08-31T14:40:09.205Z,82.29
2017-08-31T14:42:38.514Z,82.89
2017-08-31T14:45:07.879Z,81.08
2017-08-31T14:47:39.393Z,81.46
2017-08-31T14:50:08.788Z,81.82
2017-08-31T14:52:38.083Z,81.05
2017-08-31T14:55:07.481Z,81.24
2017-08-31T14:57:37.003Z,80.26
2017-08-31T15:00:06.382Z,81.25
2017-08-31T15:02:36.176Z,80.92
2017-08-31T15:05:05.844Z,80.50
2017-08-31T15:07:35.161Z,80.50
2017-08-31T15:10:04.643Z,81.24
2017-08-31T15:12:34.110Z,81.87
2017-08-31T15:15:03.656Z,80.36
2017-08-31T15:17:33.027Z,79.74
2017-08-31T15:20:02.378Z,80.66
2017-08-31T15:22:31.754Z,81.30
2017-08-31T15:25:01.269Z,81.13
2017-08-31T15:27:30.624Z,80.69
2017-08-31T15:30:00.077Z,81.56
2017-08-31T15:32:30.119Z,80.75
2017-08-31T15:35:00.751Z,81.34
2017-08-31T15:37:33.344Z,81.01
2017-08-31T15:40:02.910Z,80.16
2017-08-31T15:42:32.468Z,79.82
2017-08-31T15:45:01.953Z,80.46
2017-08-31T15:47:31.383Z,79.40
2017-08-31T15:50:03.329Z,78.97
2017-08-31T15:52:40.204Z,79.97
2017-08-31T15:55:10.172Z,79.68
2017-08-31T15:57:39.701Z,79.60
2017-08-31T16:00:18.676Z,79.90
2017-08-31T16:02:52.109Z,80.40
2017-08-31T16:05:21.732Z,79.43
2017-08-31T16:07:51.241Z,80.74
2017-08-31T16:13:04.756Z,79.73
2017-08-31T16:15:34.202Z,79.72
2017-08-31T16:18:03.657Z,80.08
2017-08-31T16:20:33.317Z,80.40
2017-08-31T16:23:02.793Z,79.82
2017-08-31T16:25:32.293Z,79.74
2017-08-31T16:28:01.672Z,80.30
2017-08-31T16:30:31.267Z,80.57
2017-08-31T16:33:00.789Z,79.82
2017-08-31T16:35:30.136Z,80.38
2017-08-31T16:37:59.813Z,80.33
2017-08-31T16:40:29.160Z,80.51
2017-08-31T16:42:58.592Z,81.29
2017-08-31T16:45:28.029Z,80.86
2017-08-31T16:47:57.405Z,81.03
2017-08-31T16:50:27.063Z,81.21
2017-08-31T16:52:56.536Z,80.53
2017-08-31T16:55:26.147Z,80.14
2017-08-31T16:57:55.529Z,80.27
2017-08-31T17:00:24.868Z,81.17
2017-08-31T17:02:54.174Z,79.23
2017-08-31T17:05:23.569Z,78.67
2017-08-31T17:07:52.852Z,78.07
2017-08-31T17:10:22.228Z,79.82
2017-08-31T17:12:51.866Z,79.78
2017-08-31T17:15:21.369Z,78.95
2017-08-31T17:17:50.756Z,79.15
2017-08-31T17:20:20.076Z,78.83
2017-08-31T17:22:49.362Z,77.53
2017-08-31T17:25:19.016Z,78.41
2017-08-31T17:27:48.367Z,77.24
2017-08-31T17:30:19.240Z,77.26
2017-08-31T17:32:48.687Z,77.91
2017-08-31T17:35:18.144Z,77.84
2017-08-31T17:37:48.040Z,77.52
2017-08-31T17:40:17.461Z,77.34
2017-08-31T17:42:46.782Z,76.02
2017-08-31T17:45:16.410Z,76.94
2017-08-31T17:47:45.735Z,77.52
2017-08-31T17:50:15.283Z,75.79
2017-08-31T17:52:44.588Z,76.24
2017-08-31T17:55:16.000Z,76.15
2017-08-31T17:57:45.340Z,77.03
2017-08-31T18:00:15.038Z,78.16
2017-08-31T18:02:45.724Z,76.91
2017-08-31T18:05:15.133Z,77.17
2017-08-31T18:07:44.667Z,77.63
2017-08-31T18:10:14.016Z,77.35
2017-08-31T18:12:43.458Z,78.28
2017-08-31T18:15:12.956Z,78.24
2017-08-31T18:17:42.282Z,77.95
2017-08-31T18:20:11.773Z,78.12
2017-08-31T18:22:41.052Z,77.71
2017-08-31T18:25:11.203Z,77.61
2017-08-31T18:27:52.862Z,78.07
2017-08-31T18:30:27.413Z,77.97
2017-08-31T18:32:56.770Z,78.05
2017-08-31T18:35:26.102Z,78.43
2017-08-31T18:37:55.690Z,78.46
2017-08-31T18:40:25.115Z,78.40
2017-08-31T18:42:54.440Z,78.93
2017-08-31T18:45:23.896Z,78.47
2017-08-31T18:47:53.196Z,79.05
2017-08-31T18:50:22.537Z,78.26
2017-08-31T18:52:51.855Z,78.49
2017-08-31T18:55:21.449Z,78.51
2017-08-31T18:57:50.720Z,79.50
2017-08-31T19:00:20.246Z,78.78
2017-08-31T19:02:49.637Z,79.47
2017-08-31T19:05:19.039Z,79.21
2017-08-31T19:07:48.570Z,79.61
2017-08-31T19:10:17.884Z,79.17
2017-08-31T19:12:47.330Z,79.00
2017-08-31T19:15:16.840Z,79.03
2017-08-31T19:17:46.688Z,78.73
2017-08-31T19:20:16.109Z,78.58
2017-08-31T19:22:45.480Z,79.62
2017-08-31T19:25:14.809Z,78.93
2017-08-31T19:27:44.076Z,79.38
2017-08-31T19:30:13.873Z,79.78
2017-08-31T19:32:43.268Z,79.67
2017-08-31T19:35:12.685Z,79.16
2017-08-31T19:37:48.575Z,79.44
2017-08-31T19:40:18.312Z,79.85
2017-08-31T19:42:47.791Z,79.84
2017-08-31T19:45:17.242Z,81.08
2017-08-31T19:47:46.537Z,79.62
2017-08-31T19:50:15.896Z,79.94
2017-08-31T19:52:45.356Z,80.22
2017-08-31T19:55:15.408Z,79.50
2017-08-31T19:57:45.018Z,79.68
2017-08-31T20:00:15.393Z,78.68
2017-08-31T20:02:44.806Z,79.21
2017-08-31T20:05:14.268Z,78.73
2017-08-31T20:07:43.619Z,78.33
2017-08-31T20:10:14.087Z,78.42
2017-08-31T20:12:43.398Z,78.36
2017-08-31T20:15:12.965Z,79.21
2017-08-31T20:17:42.395Z,78.52
2017-08-31T20:20:11.937Z,79.47
2017-08-31T20:22:41.467Z,78.44
2017-08-31T20:25:10.837Z,78.75
2017-08-31T20:27:40.344Z,78.16
2017-08-31T20:30:09.999Z,78.20
2017-08-31T20:32:39.501Z,78.34
2017-08-31T20:35:08.954Z,77.75
2017-08-31T20:37:38.609Z,77.75
2017-08-31T20:40:08.341Z,77.95
2017-08-31T20:42:37.669Z,77.48
2017-08-31T20:45:07.031Z,77.85
2017-08-31T20:47:36.353Z,77.57
2017-08-31T20:50:05.932Z,77.94
2017-08-31T20:52:35.283Z,77.39
2017-08-31T20:55:05.901Z,77.56
2017-08-31T20:57:35.200Z,78.15
2017-08-31T21:00:04.711Z,78.68
2017-08-31T21:02:34.066Z,78.43
2017-08-31T21:05:03.553Z,76.76
2017-08-31T21:07:32.904Z,77.05
2017-08-31T21:10:02.253Z,76.93
2017-08-31T21:12:31.800Z,77.58
2017-08-31T21:15:01.639Z,78.15
2017-08-31T21:17:31.185Z,77.32
2017-08-31T21:20:00.856Z,76.85
2017-08-31T21:22:30.404Z,77.48
2017-08-31T21:24:59.688Z,77.07
2017-08-31T21:27:29.046Z,77.58
2017-08-31T21:29:58.558Z,77.63
2017-08-31T21:32:28.240Z,76.36
2017-08-31T21:34:58.051Z,77.24
2017-08-31T21:37:27.652Z,77.45
2017-08-31T21:39:57.028Z,77.03
2017-08-31T21:42:26.380Z,77.45
2017-08-31T21:44:55.717Z,77.82
2017-08-31T21:47:25.016Z,76.81
2017-08-31T21:49:54.294Z,77.00
2017-08-31T21:52:23.656Z,75.97
2017-08-31T21:54:53.156Z,76.25
2017-08-31T21:57:22.600Z,75.87
2017-08-31T21:59:52.086Z,75.77
2017-08-31T22:02:21.417Z,76.07
2017-08-31T22:04:50.778Z,75.54
2017-08-31T22:07:20.169Z,75.34
2017-08-31T22:09:50.269Z,75.84
2017-08-31T22:12:19.621Z,75.95
2017-08-31T22:14:48.906Z,76.24
2017-08-31T22:17:18.356Z,76.02
2017-08-31T22:19:47.923Z,76.29
2017-08-31T22:22:17.480Z,76.62
2017-08-31T22:24:46.993Z,76.90
2017-08-31T22:27:16.509Z,76.16
2017-08-31T22:29:45.787Z,77.12
2017-08-31T22:32:15.277Z,77.24
2017-08-31T22:34:44.581Z,77.06
2017-08-31T22:37:13.912Z,77.73
2017-08-31T22:39:43.200Z,78.09
2017-08-31T22:42:12.584Z,77.93
2017-08-31T22:44:41.992Z,77.42
2017-08-31T22:47:11.352Z,77.52
2017-08-31T22:49:40.661Z,78.93
2017-08-31T22:52:10.164Z,78.71
2017-08-31T22:54:49.200Z,80.24
2017-08-31T22:57:27.700Z,79.30
2017-08-31T22:59:57.078Z,78.85
2017-08-31T23:02:26.400Z,79.81
2017-08-31T23:04:55.909Z,80.88
2017-08-31T23:07:25.291Z,80.98
2017-08-31T23:09:54.714Z,81.68
2017-08-31T23:12:24.197Z,81.33
2017-08-31T23:14:53.590Z,82.11
2017-08-31T23:17:22.897Z,82.10
2017-08-31T23:19:52.184Z,82.21
2017-08-31T23:22:21.505Z,82.46
2017-08-31T23:24:50.965Z,83.33
2017-08-31T23:27:20.682Z,82.61
2017-08-31T23:29:50.174Z,82.94
2017-08-31T23:32:19.484Z,82.25
2017-08-31T23:34:48.932Z,82.85
2017-08-31T23:37:18.327Z,82.97
2017-08-31T23:39:48.198Z,83.04
2017-08-31T23:42:17.823Z,82.73
2017-08-31T23:44:47.532Z,82.89
2017-08-31T23:47:16.980Z,83.26
2017-08-31T23:49:46.247Z,83.10
2017-08-31T23:52:16.212Z,83.11
2017-08-31T23:54:45.507Z,83.08
2017-08-31T23:57:15.093Z,83.28
2017-08-31T23:59:44.666Z,83.05
